^^
Station Historical Data
Daily Summary for February 23, 2012 Units:  English    Metric   Both
« Previous Day
Next Day »
Daily Weekly Monthly Yearly Custom
  High: Low: Average:
Temperature: 39.1 °F 28.3 °F 35 °F
Dew Point: 38.2 °F 27.3 °F 34 °F
Humidity: 97% 96% 96%
Wind Speed: 5.0mph 0.0mph 2mph
Wind Gust: 14.0mph - -
Wind- - ENE
Pressure: 29.59 in 29.46 in -
Precipitation: 0.07 in    
Historical Graphs
 
 
Tabular Data for February 23, 2012
Time Temperature Dew Point Pressure Wind Wind Speed Wind Gust Humidity Rainfall Rate (Hourly)
00:09 32.0 °F 31.0 °F 29.49 in Calm     96% 0.00 in
00:19 31.5 °F 30.5 °F 29.50 in Calm     96% 0.00 in
00:29 31.2 °F 30.2 °F 29.50 in Calm     96% 0.00 in
00:39 31.2 °F 30.1 °F 29.50 in Calm     96% 0.00 in
00:49 31.0 °F 30.0 °F 29.50 in Calm     96% 0.00 in
00:59 30.8 °F 29.8 °F 29.51 in Calm     96% 0.00 in
01:09 30.7 °F 29.7 °F 29.51 in Calm     96% 0.00 in
01:19 30.6 °F 29.6 °F 29.51 in Calm     96% 0.00 in
01:29 30.9 °F 29.9 °F 29.52 in Calm     96% 0.00 in
01:39 31.2 °F 30.2 °F 29.52 in Calm     96% 0.00 in
01:49 32.0 °F 31.0 °F 29.53 in Calm     96% 0.00 in
01:59 32.4 °F 31.6 °F 29.54 in Calm     97% 0.00 in
02:09 32.6 °F 31.6 °F 29.54 in Calm     96% 0.00 in
02:19 32.7 °F 31.7 °F 29.54 in Calm     96% 0.00 in
02:29 32.6 °F 31.5 °F 29.54 in Calm     96% 0.00 in
02:39 32.5 °F 31.5 °F 29.54 in Calm     96% 0.00 in
02:49 32.1 °F 31.1 °F 29.53 in Calm     96% 0.00 in
02:59 31.8 °F 30.8 °F 29.53 in Calm     96% 0.00 in
03:09 31.4 °F 30.4 °F 29.53 in Calm     96% 0.00 in
03:19 31.0 °F 30.0 °F 29.52 in Calm     96% 0.00 in
03:29 30.6 °F 29.6 °F 29.53 in Calm     96% 0.00 in
03:39 30.2 °F 29.2 °F 29.53 in Calm     96% 0.00 in
03:49 30.0 °F 29.0 °F 29.54 in Calm     96% 0.00 in
03:59 30.1 °F 29.1 °F 29.55 in Calm     96% 0.00 in
04:09 30.0 °F 29.0 °F 29.54 in Calm     96% 0.00 in
04:19 30.0 °F 29.0 °F 29.54 in Calm     96% 0.00 in
04:29 29.7 °F 28.7 °F 29.54 in Calm     96% 0.00 in
04:39 29.6 °F 28.6 °F 29.54 in Calm     96% 0.00 in
04:49 29.5 °F 28.5 °F 29.55 in Calm     96% 0.00 in
04:59 29.4 °F 28.4 °F 29.55 in Calm     96% 0.00 in
05:09 29.2 °F 28.2 °F 29.56 in Calm     96% 0.00 in
05:19 28.9 °F 27.9 °F 29.56 in Calm     96% 0.00 in
05:29 28.8 °F 27.8 °F 29.56 in Calm     96% 0.00 in
05:39 28.9 °F 27.9 °F 29.56 in Calm     96% 0.00 in
05:49 28.7 °F 27.7 °F 29.57 in Calm     96% 0.00 in
05:59 28.5 °F 27.5 °F 29.57 in Calm     96% 0.00 in
06:09 28.3 °F 27.3 °F 29.57 in Calm     96% 0.00 in
06:19 28.4 °F 27.4 °F 29.57 in Calm     96% 0.00 in
06:29 28.4 °F 27.4 °F 29.57 in Calm     96% 0.00 in
06:39 28.7 °F 28.0 °F 29.56 in Calm     97% 0.00 in
06:49 29.2 °F 28.2 °F 29.56 in Calm     96% 0.00 in
06:59 29.6 °F 28.8 °F 29.56 in Calm     97% 0.00 in
07:09 29.7 °F 29.0 °F 29.56 in Calm     97% 0.00 in
07:19 30.1 °F 29.4 °F 29.56 in Calm     97% 0.00 in
07:29 30.5 °F 29.8 °F 29.55 in Calm   1.0 mph 97% 0.00 in
07:39 31.0 °F 30.2 °F 29.55 in Calm   1.0 mph 97% 0.00 in
07:49 31.7 °F 30.9 °F 29.56 in Calm   1.0 mph 97% 0.00 in
07:59 32.4 °F 31.6 °F 29.57 in Calm   1.0 mph 97% 0.00 in
08:09 33.0 °F 32.2 °F 29.56 in SSE 1.0 mph 2.0 mph 97% 0.00 in
08:19 33.5 °F 32.8 °F 29.56 in Calm   3.0 mph 97% 0.00 in
08:29 33.8 °F 33.1 °F 29.56 in Calm   4.0 mph 97% 0.00 in
08:39 34.1 °F 33.3 °F 29.56 in Calm   4.0 mph 97% 0.00 in
08:49 34.3 °F 33.5 °F 29.56 in Calm   3.0 mph 97% 0.00 in
08:59 34.4 °F 33.6 °F 29.56 in Calm   3.0 mph 97% 0.00 in
09:09 34.4 °F 33.6 °F 29.56 in Calm   4.0 mph 97% 0.00 in
09:19 34.6 °F 33.8 °F 29.56 in Calm   5.0 mph 97% 0.00 in
09:29 35.0 °F 34.2 °F 29.57 in ENE 1.0 mph 2.0 mph 97% 0.00 in
09:39 35.3 °F 34.5 °F 29.58 in Calm   3.0 mph 97% 0.00 in
09:49 35.5 °F 34.7 °F 29.58 in East 1.0 mph 3.0 mph 97% 0.00 in
09:59 35.7 °F 34.9 °F 29.58 in East 1.0 mph 3.0 mph 97% 0.00 in
10:09 36.0 °F 35.2 °F 29.58 in East 1.0 mph 3.0 mph 97% 0.00 in
10:19 36.3 °F 35.5 °F 29.58 in ESE 2.0 mph 4.0 mph 97% 0.00 in
10:29 36.5 °F 35.7 °F 29.58 in East 2.0 mph 5.0 mph 97% 0.00 in
10:39 36.6 °F 35.8 °F 29.58 in ESE 2.0 mph 6.0 mph 97% 0.00 in
10:49 36.8 °F 36.0 °F 29.59 in East 1.0 mph 6.0 mph 97% 0.00 in
10:59 36.9 °F 36.1 °F 29.59 in East 1.0 mph 5.0 mph 97% 0.00 in
11:09 37.1 °F 36.3 °F 29.59 in Calm   4.0 mph 97% 0.00 in
11:19 37.1 °F 36.4 °F 29.58 in East 2.0 mph 6.0 mph 97% 0.00 in
11:29 37.2 °F 36.4 °F 29.57 in Calm   6.0 mph 97% 0.01 in
11:39 37.4 °F 36.6 °F 29.56 in Calm   4.0 mph 97% 0.01 in
11:49 37.6 °F 36.8 °F 29.57 in Calm   3.0 mph 97% 0.00 in
11:59 37.7 °F 36.9 °F 29.57 in ESE 1.0 mph 5.0 mph 97% 0.01 in
12:09 37.7 °F 36.9 °F 29.57 in Calm   3.0 mph 97% 0.00 in
12:19 37.7 °F 36.9 °F 29.57 in Calm   4.0 mph 97% 0.01 in
12:29 37.6 °F 36.8 °F 29.55 in ESE 2.0 mph 3.0 mph 97% 0.00 in
12:39 37.5 °F 36.5 °F 29.54 in ESE 1.0 mph 5.0 mph 96% 0.01 in
12:49 37.6 °F 36.8 °F 29.53 in East 2.0 mph 6.0 mph 97% 0.00 in
12:59 37.8 °F 37.0 °F 29.53 in Calm   4.0 mph 97% 0.00 in
13:09 37.9 °F 36.9 °F 29.52 in East 2.0 mph 5.0 mph 96% 0.00 in
13:19 38.0 °F 37.0 °F 29.52 in ESE 1.0 mph 4.0 mph 96% 0.00 in
13:29 38.2 °F 37.2 °F 29.52 in Calm   4.0 mph 96% 0.00 in
13:39 38.2 °F 37.4 °F 29.52 in ENE 1.0 mph 5.0 mph 97% 0.01 in
13:49 38.3 °F 37.5 °F 29.51 in Calm   2.0 mph 97% 0.00 in
13:59 38.4 °F 37.4 °F 29.51 in East 1.0 mph 3.0 mph 96% 0.00 in
14:09 38.4 °F 37.4 °F 29.51 in Calm   3.0 mph 96% 0.00 in
14:19 38.5 °F 37.5 °F 29.52 in Calm   3.0 mph 96% 0.00 in
14:29 38.6 °F 37.6 °F 29.51 in Calm   2.0 mph 96% 0.00 in
14:39 38.7 °F 37.7 °F 29.50 in NE 1.0 mph 3.0 mph 96% 0.00 in
14:49 38.9 °F 38.1 °F 29.50 in ENE 1.0 mph 3.0 mph 97% 0.00 in
14:59 39.0 °F 38.2 °F 29.50 in ENE 1.0 mph 4.0 mph 97% 0.00 in
15:09 39.0 °F 38.0 °F 29.50 in Calm   5.0 mph 96% 0.00 in
15:19 39.1 °F 38.0 °F 29.51 in Calm   3.0 mph 96% 0.00 in
15:29 39.0 °F 38.0 °F 29.51 in Calm   4.0 mph 96% 0.00 in
15:39 39.0 °F 38.0 °F 29.50 in ENE 1.0 mph 3.0 mph 96% 0.00 in
15:49 39.0 °F 38.0 °F 29.50 in NE 1.0 mph 4.0 mph 96% 0.00 in
15:59 39.0 °F 38.0 °F 29.50 in Calm   3.0 mph 96% 0.00 in
16:09 39.0 °F 38.0 °F 29.50 in Calm   5.0 mph 96% 0.00 in
16:19 39.0 °F 38.0 °F 29.50 in NE 3.0 mph 6.0 mph 96% 0.00 in
16:29 38.9 °F 37.9 °F 29.50 in Calm   5.0 mph 96% 0.00 in
16:39 38.9 °F 37.9 °F 29.51 in NNE 1.0 mph 4.0 mph 96% 0.00 in
16:49 38.9 °F 37.8 °F 29.51 in NE 3.0 mph 7.0 mph 96% 0.00 in
16:59 38.8 °F 37.8 °F 29.50 in NE 1.0 mph 4.0 mph 96% 0.00 in
17:09 38.7 °F 37.7 °F 29.51 in ENE 1.0 mph 5.0 mph 96% 0.00 in
17:19 38.7 °F 37.7 °F 29.51 in NE 2.0 mph 7.0 mph 96% 0.00 in
17:29 38.5 °F 37.5 °F 29.51 in ENE 3.0 mph 8.0 mph 96% 0.00 in
17:39 38.2 °F 37.2 °F 29.50 in NE 2.0 mph 8.0 mph 96% 0.00 in
17:49 38.0 °F 37.0 °F 29.50 in NE 3.0 mph 8.0 mph 96% 0.00 in
17:59 37.9 °F 36.9 °F 29.50 in ENE 3.0 mph 8.0 mph 96% 0.00 in
18:09 37.7 °F 36.7 °F 29.50 in NE 2.0 mph 8.0 mph 96% 0.00 in
18:19 37.6 °F 36.6 °F 29.50 in NE 1.0 mph 12.0 mph 96% 0.00 in
18:29 37.5 °F 36.5 °F 29.50 in ENE 3.0 mph 10.0 mph 96% 0.00 in
18:39 37.4 °F 36.4 °F 29.51 in Calm   8.0 mph 96% 0.00 in
18:49 37.4 °F 36.4 °F 29.52 in ENE 1.0 mph 6.0 mph 96% 0.00 in
18:59 37.4 °F 36.4 °F 29.51 in NE 2.0 mph 12.0 mph 96% 0.00 in
19:09 37.3 °F 36.3 °F 29.51 in NNE 1.0 mph 7.0 mph 96% 0.00 in
19:19 37.3 °F 36.3 °F 29.51 in NE 2.0 mph 9.0 mph 96% 0.00 in
19:29 37.4 °F 36.3 °F 29.52 in ENE 1.0 mph 9.0 mph 96% 0.00 in
19:39 37.4 °F 36.4 °F 29.52 in ENE 3.0 mph 8.0 mph 96% 0.00 in
19:49 37.4 °F 36.4 °F 29.52 in NE 3.0 mph 6.0 mph 96% 0.00 in
19:59 37.4 °F 36.4 °F 29.51 in NE 2.0 mph 8.0 mph 96% 0.00 in
20:09 37.4 °F 36.4 °F 29.50 in ENE 3.0 mph 7.0 mph 96% 0.00 in
20:19 37.4 °F 36.4 °F 29.49 in ENE 3.0 mph 12.0 mph 96% 0.00 in
20:29 37.3 °F 36.3 °F 29.50 in ENE 3.0 mph 8.0 mph 96% 0.00 in
20:39 37.3 °F 36.3 °F 29.51 in ENE 3.0 mph 9.0 mph 96% 0.00 in
20:49 37.3 °F 36.2 °F 29.51 in ENE 3.0 mph 6.0 mph 96% 0.00 in
20:59 37.3 °F 36.2 °F 29.51 in ENE 2.0 mph 9.0 mph 96% 0.01 in
21:09 37.2 °F 36.2 °F 29.52 in ENE 3.0 mph 7.0 mph 96% 0.00 in
21:19 37.2 °F 36.2 °F 29.51 in NE 1.0 mph 6.0 mph 96% 0.00 in
21:29 37.2 °F 36.2 °F 29.50 in ENE 5.0 mph 10.0 mph 96% 0.00 in
21:39 37.2 °F 36.2 °F 29.51 in NE 2.0 mph 7.0 mph 96% 0.00 in
21:49 37.1 °F 36.1 °F 29.50 in NE 1.0 mph 6.0 mph 96% 0.00 in
21:59 37.0 °F 36.0 °F 29.50 in NE 1.0 mph 12.0 mph 96% 0.00 in
22:09 36.9 °F 35.9 °F 29.50 in NE 5.0 mph 12.0 mph 96% 0.00 in
22:19 36.9 °F 35.9 °F 29.50 in NE 5.0 mph 12.0 mph 96% 0.00 in
22:29 36.8 °F 35.8 °F 29.49 in ENE 1.0 mph 7.0 mph 96% 0.00 in
22:39 36.8 °F 35.8 °F 29.48 in NE 3.0 mph 9.0 mph 96% 0.00 in
22:49 36.6 °F 35.6 °F 29.48 in NE 1.0 mph 8.0 mph 96% 0.00 in
22:59 36.6 °F 35.6 °F 29.47 in NE 3.0 mph 12.0 mph 96% 0.00 in
23:09 36.5 °F 35.5 °F 29.47 in NE 5.0 mph 14.0 mph 96% 0.00 in
23:19 36.4 °F 35.4 °F 29.46 in NE 3.0 mph 14.0 mph 96% 0.00 in
23:29 36.3 °F 35.3 °F 29.46 in NE 1.0 mph 8.0 mph 96% 0.00 in
23:39 36.3 °F 35.3 °F 29.46 in ENE 2.0 mph 12.0 mph 96% 0.00 in
23:49 36.2 °F 35.2 °F 29.46 in ENE 3.0 mph 9.0 mph 96% 0.00 in
23:59 35.8 °F 34.8 °F 29.46 in NE 2.0 mph 10.0 mph 96% 0.00 in
jolietwx - Weather
Compliments of Weather Underground